createdAt,value
2023-03-07T00:00:29.807Z,9.63
2023-03-07T00:02:58.026Z,8.97
2023-03-07T00:05:26.242Z,10.47
2023-03-07T00:07:55.845Z,4.67
2023-03-07T00:10:24.016Z,8.03
2023-03-07T00:12:52.280Z,10.33
2023-03-07T00:15:20.570Z,11.27
2023-03-07T00:17:48.729Z,7.33
2023-03-07T00:20:17.108Z,7.80
2023-03-07T00:22:46.899Z,9.27
2023-03-07T00:25:16.546Z,7.63
2023-03-07T00:27:44.777Z,6.93
2023-03-07T00:30:13.428Z,8.43
2023-03-07T00:32:41.760Z,8.13
2023-03-07T00:35:10.234Z,12.33
2023-03-07T00:37:38.626Z,8.90
2023-03-07T00:40:07.830Z,9.73
2023-03-07T00:42:37.370Z,8.03
2023-03-07T00:45:05.687Z,9.50
2023-03-07T00:47:33.949Z,8.87
2023-03-07T00:50:02.166Z,9.17
2023-03-07T00:52:30.300Z,7.87
2023-03-07T00:54:58.565Z,9.00
2023-03-07T00:57:26.768Z,10.20
2023-03-07T00:59:56.269Z,7.07
2023-03-07T01:02:24.437Z,8.53
2023-03-07T01:04:52.581Z,6.80
2023-03-07T01:07:20.770Z,9.67
2023-03-07T01:09:53.170Z,10.80
2023-03-07T01:12:21.360Z,10.80
2023-03-07T01:14:51.561Z,11.93
2023-03-07T01:17:21.130Z,11.03
2023-03-07T01:19:49.336Z,11.97
2023-03-07T01:22:17.490Z,8.20
2023-03-07T01:24:45.694Z,8.63
2023-03-07T01:27:13.941Z,7.97
2023-03-07T01:29:42.145Z,10.57
2023-03-07T01:32:10.531Z,10.87
2023-03-07T01:34:40.136Z,9.63
2023-03-07T01:37:08.342Z,8.80
2023-03-07T01:39:36.683Z,9.50
2023-03-07T01:42:05.048Z,11.30
2023-03-07T01:44:33.607Z,10.23
2023-03-07T01:47:02.080Z,9.00
2023-03-07T01:49:31.480Z,9.30
2023-03-07T01:52:04.340Z,11.13
2023-03-07T01:54:33.973Z,9.50
2023-03-07T01:57:03.577Z,13.67
2023-03-07T01:59:33.008Z,12.63
2023-03-07T02:02:03.097Z,9.30
2023-03-07T02:04:34.263Z,9.67
2023-03-07T02:07:04.492Z,12.10
2023-03-07T02:09:33.144Z,11.50
2023-03-07T02:12:01.752Z,12.00
2023-03-07T02:14:30.032Z,15.87
2023-03-07T02:16:58.508Z,10.23
2023-03-07T02:19:36.380Z,10.93
2023-03-07T02:22:10.881Z,6.00
2023-03-07T02:24:42.574Z,12.40
2023-03-07T02:27:12.225Z,6.97
2023-03-07T02:29:40.697Z,8.73
2023-03-07T02:32:09.061Z,11.53
2023-03-07T02:34:37.575Z,13.93
2023-03-07T02:37:06.855Z,8.27
2023-03-07T02:39:35.984Z,9.50
2023-03-07T02:42:06.189Z,11.90
2023-03-07T02:44:35.820Z,10.53
2023-03-07T02:47:05.497Z,7.90
2023-03-07T02:49:33.770Z,8.13
2023-03-07T02:52:01.999Z,10.70
2023-03-07T02:54:30.253Z,7.17
2023-03-07T02:56:58.658Z,6.73
2023-03-07T02:59:26.840Z,12.93
2023-03-07T03:01:56.552Z,6.80
2023-03-07T03:04:24.796Z,10.40
2023-03-07T03:06:53.123Z,7.73
2023-03-07T03:09:21.371Z,6.60
2023-03-07T03:11:49.579Z,7.67
2023-03-07T03:14:17.799Z,7.00
2023-03-07T03:16:46.020Z,13.00
2023-03-07T03:19:15.651Z,7.20
2023-03-07T03:21:43.923Z,8.77
2023-03-07T03:24:12.115Z,8.87
2023-03-07T03:26:40.574Z,10.57
2023-03-07T03:29:09.776Z,7.30
2023-03-07T03:31:38.173Z,10.57
2023-03-07T03:34:06.440Z,10.37
2023-03-07T03:36:36.108Z,6.37
2023-03-07T03:39:07.134Z,11.10
2023-03-07T03:41:35.357Z,9.93
2023-03-07T03:44:03.634Z,9.87
2023-03-07T03:46:32.031Z,7.83
2023-03-07T03:49:00.285Z,9.13
2023-03-07T03:51:28.637Z,7.00
2023-03-07T03:53:58.706Z,5.97
2023-03-07T03:56:27.759Z,7.80
2023-03-07T03:58:57.165Z,7.67
2023-03-07T04:01:26.455Z,8.23
2023-03-07T04:03:55.245Z,5.77
2023-03-07T04:06:24.963Z,7.33
2023-03-07T04:08:53.966Z,7.47
2023-03-07T04:11:24.101Z,8.93
2023-03-07T04:13:52.335Z,4.17
2023-03-07T04:16:22.393Z,8.53
2023-03-07T04:18:51.299Z,6.47
2023-03-07T04:21:19.597Z,9.17
2023-03-07T04:23:49.540Z,6.80
2023-03-07T04:26:18.193Z,8.33
2023-03-07T04:28:49.351Z,3.60
2023-03-07T04:31:18.439Z,7.23
2023-03-07T04:33:47.264Z,3.50
2023-03-07T04:36:17.268Z,9.37
2023-03-07T04:38:45.542Z,7.70
2023-03-07T04:41:15.373Z,6.97
2023-03-07T04:43:43.694Z,6.70
2023-03-07T04:46:13.959Z,7.33
2023-03-07T04:48:42.449Z,8.20
2023-03-07T04:51:10.778Z,5.83
2023-03-07T04:53:39.016Z,5.43
2023-03-07T04:56:08.320Z,10.80
2023-03-07T04:58:36.820Z,7.40
2023-03-07T05:01:05.533Z,8.13
2023-03-07T05:03:35.465Z,5.77
2023-03-07T05:06:04.549Z,7.47
2023-03-07T05:08:32.808Z,5.83
2023-03-07T05:11:01.067Z,7.43
2023-03-07T05:13:29.260Z,4.40
2023-03-07T05:15:58.883Z,3.97
2023-03-07T05:18:27.539Z,8.33
2023-03-07T05:20:57.112Z,4.33
2023-03-07T05:23:25.356Z,7.30
2023-03-07T05:25:53.676Z,3.17
2023-03-07T05:28:21.909Z,5.93
2023-03-07T05:30:50.416Z,4.83
2023-03-07T05:33:18.560Z,3.07
2023-03-07T05:35:46.933Z,2.43
2023-03-07T05:38:16.559Z,6.97
2023-03-07T05:40:44.744Z,4.63
2023-03-07T05:43:12.960Z,3.70
2023-03-07T05:45:41.224Z,4.43
2023-03-07T05:48:09.461Z,4.83
2023-03-07T05:50:39.245Z,3.93
2023-03-07T05:53:07.624Z,6.63
2023-03-07T05:55:37.222Z,3.67
2023-03-07T05:58:05.468Z,1.27
2023-03-07T06:00:33.777Z,4.30
2023-03-07T06:03:03.233Z,1.67
2023-03-07T06:05:31.642Z,3.33
2023-03-07T06:07:59.896Z,2.90
2023-03-07T06:10:28.311Z,3.27
2023-03-07T06:12:57.906Z,6.10
2023-03-07T06:15:26.149Z,3.87
2023-03-07T06:17:54.395Z,3.40
2023-03-07T06:20:22.647Z,3.17
2023-03-07T06:22:50.797Z,6.47
2023-03-07T06:25:21.613Z,3.13
2023-03-07T06:27:50.207Z,2.53
2023-03-07T06:30:20.011Z,3.03
2023-03-07T06:32:48.374Z,4.33
2023-03-07T06:35:16.667Z,4.10
2023-03-07T06:37:44.945Z,5.53
2023-03-07T06:40:13.668Z,4.57
2023-03-07T06:42:41.954Z,4.63
2023-03-07T06:45:10.471Z,3.17
2023-03-07T06:47:39.956Z,3.07
2023-03-07T06:50:08.843Z,5.27
2023-03-07T06:52:37.009Z,7.50
2023-03-07T06:55:05.313Z,8.43
2023-03-07T06:57:34.381Z,4.80
2023-03-07T07:00:02.620Z,2.53
2023-03-07T07:02:31.005Z,5.97
2023-03-07T07:05:01.363Z,4.43
2023-03-07T07:07:29.736Z,6.23
2023-03-07T07:09:57.930Z,3.40
2023-03-07T07:12:26.216Z,5.17
2023-03-07T07:14:54.428Z,5.70
2023-03-07T07:17:22.627Z,4.70
2023-03-07T07:19:50.881Z,4.27
2023-03-07T07:22:20.488Z,4.63
2023-03-07T07:24:48.684Z,5.00
2023-03-07T07:27:16.843Z,4.70
2023-03-07T07:29:45.046Z,7.10
2023-03-07T07:32:13.403Z,3.03
2023-03-07T07:34:41.689Z,5.23
2023-03-07T07:37:09.958Z,5.50
2023-03-07T07:39:41.321Z,5.67
2023-03-07T07:42:09.505Z,3.90
2023-03-07T07:44:37.770Z,3.60
2023-03-07T07:47:06.177Z,3.90
2023-03-07T07:49:35.531Z,6.23
2023-03-07T07:52:03.782Z,2.10
2023-03-07T07:54:32.143Z,6.00
2023-03-07T07:57:01.767Z,2.90
2023-03-07T07:59:31.670Z,3.30
2023-03-07T08:01:59.916Z,4.90
2023-03-07T08:04:28.182Z,2.23
2023-03-07T08:06:56.364Z,3.73
2023-03-07T08:09:24.629Z,6.97
2023-03-07T08:11:52.764Z,3.80
2023-03-07T08:14:22.277Z,7.27
2023-03-07T08:16:50.506Z,6.17
2023-03-07T08:19:18.703Z,8.83
2023-03-07T08:21:46.872Z,5.33
2023-03-07T08:24:15.135Z,6.17
2023-03-07T08:26:43.414Z,3.10
2023-03-07T08:29:11.708Z,3.07
2023-03-07T08:31:41.217Z,4.30
2023-03-07T08:34:09.413Z,2.37
2023-03-07T08:36:37.677Z,3.43
2023-03-07T08:39:05.932Z,5.17
2023-03-07T08:41:34.143Z,3.07
2023-03-07T08:44:02.359Z,2.17
2023-03-07T08:46:30.647Z,7.47
2023-03-07T08:49:00.257Z,3.20
2023-03-07T08:51:28.693Z,4.83
2023-03-07T08:53:56.941Z,3.73
2023-03-07T08:56:25.298Z,5.90
2023-03-07T08:58:54.451Z,1.60
2023-03-07T09:01:22.673Z,5.03
2023-03-07T09:03:50.894Z,4.10
2023-03-07T09:06:22.413Z,7.63
2023-03-07T09:08:51.266Z,4.60
2023-03-07T09:11:21.564Z,3.40
2023-03-07T09:13:52.877Z,1.37
2023-03-07T09:16:21.826Z,4.57
2023-03-07T09:18:50.184Z,2.53
2023-03-07T09:21:18.477Z,2.30
2023-03-07T09:23:48.119Z,5.53
2023-03-07T09:26:16.497Z,3.80
2023-03-07T09:28:44.705Z,4.10
2023-03-07T09:31:13.657Z,1.93
2023-03-07T09:33:42.138Z,2.87
2023-03-07T09:36:11.303Z,1.50
2023-03-07T09:38:40.107Z,1.83
2023-03-07T09:41:17.384Z,4.37
2023-03-07T09:43:48.996Z,2.00
2023-03-07T09:46:22.197Z,4.67
2023-03-07T09:49:08.298Z,2.03
2023-03-07T09:51:38.437Z,3.63
2023-03-07T09:54:08.332Z,3.13
2023-03-07T09:56:40.065Z,3.17
2023-03-07T09:59:22.440Z,1.07
2023-03-07T10:01:53.305Z,5.83
2023-03-07T10:04:24.214Z,1.60
2023-03-07T10:06:58.292Z,2.90
2023-03-07T10:09:27.012Z,3.50
2023-03-07T10:12:05.437Z,3.23
2023-03-07T10:14:40.763Z,2.40
2023-03-07T10:17:12.242Z,3.10
2023-03-07T10:19:46.418Z,3.40
2023-03-07T10:22:17.502Z,2.90
2023-03-07T10:24:51.303Z,1.60
2023-03-07T10:27:21.182Z,2.40
2023-03-07T10:29:50.749Z,5.43
2023-03-07T10:32:22.430Z,2.30
2023-03-07T10:34:54.528Z,3.30
2023-03-07T10:37:23.565Z,2.67
2023-03-07T10:39:53.207Z,2.27
2023-03-07T10:42:24.124Z,2.27
2023-03-07T10:44:52.800Z,3.20
2023-03-07T10:47:23.326Z,4.53
2023-03-07T10:49:53.515Z,4.30
2023-03-07T10:52:29.801Z,1.57
2023-03-07T10:55:18.504Z,4.07
2023-03-07T10:57:48.126Z,4.53
2023-03-07T11:00:19.608Z,2.60
2023-03-07T11:02:48.042Z,2.27
2023-03-07T11:05:23.233Z,1.90
2023-03-07T11:07:51.456Z,3.13
2023-03-07T11:10:33.903Z,4.23
2023-03-07T11:13:08.540Z,1.67
2023-03-07T11:15:36.786Z,3.27
2023-03-07T11:18:05.135Z,5.10
2023-03-07T11:20:49.240Z,3.07
2023-03-07T11:23:23.360Z,2.60
2023-03-07T11:25:51.765Z,3.33
2023-03-07T11:28:29.481Z,4.30
2023-03-07T11:31:01.676Z,3.43
2023-03-07T11:33:34.775Z,2.30
2023-03-07T11:36:04.340Z,5.53
2023-03-07T11:38:37.915Z,3.13
2023-03-07T11:41:08.090Z,2.00
2023-03-07T11:43:51.145Z,2.63
2023-03-07T11:46:24.748Z,3.20
2023-03-07T11:48:56.958Z,2.07
2023-03-07T11:51:33.639Z,2.37
2023-03-07T11:54:05.868Z,3.60
2023-03-07T11:56:35.846Z,2.30
2023-03-07T11:59:17.660Z,1.73
2023-03-07T12:01:51.058Z,2.20
2023-03-07T12:04:37.226Z,1.93
2023-03-07T12:07:12.132Z,3.20
2023-03-07T12:09:46.136Z,4.33
2023-03-07T12:12:19.928Z,2.33
2023-03-07T12:14:51.146Z,4.93
2023-03-07T12:17:27.417Z,2.20
2023-03-07T12:20:08.806Z,3.57
2023-03-07T12:22:41.483Z,1.57
2023-03-07T12:25:19.555Z,2.93
2023-03-07T12:27:50.226Z,4.23
2023-03-07T12:30:20.080Z,1.37
2023-03-07T12:32:51.660Z,2.47
2023-03-07T12:35:24.330Z,1.13
2023-03-07T12:37:54.987Z,2.47
2023-03-07T12:40:23.935Z,2.73
2023-03-07T12:42:55.318Z,1.70
2023-03-07T12:45:26.167Z,1.27
2023-03-07T12:48:01.587Z,5.17
2023-03-07T12:50:31.890Z,2.83
2023-03-07T12:53:03.825Z,2.43
2023-03-07T12:55:37.017Z,3.00
2023-03-07T12:58:08.014Z,1.47
2023-03-07T13:00:39.161Z,4.57
2023-03-07T13:03:10.797Z,1.60
2023-03-07T13:05:39.415Z,2.00
2023-03-07T13:08:08.696Z,3.50
2023-03-07T13:10:36.939Z,2.70
2023-03-07T13:13:25.664Z,3.80
2023-03-07T13:16:04.442Z,1.73
2023-03-07T13:18:34.313Z,2.17
2023-03-07T13:21:09.984Z,2.60
2023-03-07T13:23:38.271Z,3.43
2023-03-07T13:26:24.770Z,2.23
2023-03-07T13:28:53.566Z,1.50
2023-03-07T13:31:29.035Z,1.83
2023-03-07T13:33:58.638Z,2.03
2023-03-07T13:36:34.260Z,3.30
2023-03-07T13:39:02.525Z,2.07
2023-03-07T13:41:45.598Z,2.33
2023-03-07T13:44:28.386Z,2.33
2023-03-07T13:47:01.290Z,3.77
2023-03-07T13:49:50.710Z,1.90
2023-03-07T13:52:40.050Z,3.20
2023-03-07T13:55:26.802Z,1.87
2023-03-07T13:57:57.233Z,2.57
2023-03-07T14:00:28.135Z,4.30
2023-03-07T14:02:56.700Z,3.17
2023-03-07T14:05:25.208Z,2.63
2023-03-07T14:07:53.680Z,3.47
2023-03-07T14:10:25.228Z,3.23
2023-03-07T14:13:09.313Z,3.40
2023-03-07T14:15:43.708Z,2.63
2023-03-07T14:18:16.998Z,4.23
2023-03-07T14:20:51.206Z,2.57
2023-03-07T14:23:26.276Z,3.23
2023-03-07T14:25:56.813Z,3.60
2023-03-07T14:28:27.834Z,3.30
2023-03-07T14:30:58.614Z,3.20
2023-03-07T14:33:31.333Z,2.50
2023-03-07T14:35:59.580Z,3.93
2023-03-07T14:38:28.688Z,3.97
2023-03-07T14:41:02.513Z,2.43
2023-03-07T14:43:37.634Z,2.43
2023-03-07T14:46:08.377Z,2.77
2023-03-07T14:48:54.599Z,4.40
2023-03-07T14:51:24.481Z,2.27
2023-03-07T14:53:52.694Z,2.40
2023-03-07T14:56:23.221Z,3.47
2023-03-07T14:58:54.103Z,4.93
2023-03-07T15:01:22.566Z,2.80
2023-03-07T15:03:51.722Z,2.37
2023-03-07T15:06:21.110Z,3.20
2023-03-07T15:08:51.189Z,2.53
2023-03-07T15:11:24.794Z,4.13
2023-03-07T15:13:56.996Z,4.40
2023-03-07T15:16:26.864Z,4.03
2023-03-07T15:18:56.612Z,4.53
2023-03-07T15:21:26.300Z,5.70
2023-03-07T15:23:55.199Z,3.37
2023-03-07T15:26:24.817Z,3.60
2023-03-07T15:28:59.957Z,3.17
2023-03-07T15:31:30.367Z,5.97
2023-03-07T15:34:10.928Z,3.87
2023-03-07T15:36:39.532Z,3.33
2023-03-07T15:39:26.913Z,2.10
2023-03-07T15:42:01.953Z,2.80
2023-03-07T15:44:31.534Z,3.93
2023-03-07T15:47:02.296Z,7.20
2023-03-07T15:49:36.959Z,3.83
2023-03-07T15:52:06.094Z,3.73
2023-03-07T15:54:39.768Z,2.63
2023-03-07T15:57:08.823Z,3.70
2023-03-07T15:59:40.138Z,5.03
2023-03-07T16:02:27.205Z,3.03
2023-03-07T16:04:55.566Z,2.27
2023-03-07T16:07:23.783Z,1.90
2023-03-07T16:09:52.091Z,3.53
2023-03-07T16:12:21.679Z,5.17
2023-03-07T16:14:51.745Z,2.47
2023-03-07T16:17:22.029Z,5.40
2023-03-07T16:19:50.232Z,3.97
2023-03-07T16:22:19.402Z,3.43
2023-03-07T16:24:47.695Z,1.93
2023-03-07T16:27:17.584Z,1.67
2023-03-07T16:29:46.237Z,4.70
2023-03-07T16:32:16.831Z,2.80
2023-03-07T16:34:45.227Z,3.83
2023-03-07T16:37:13.949Z,8.93
2023-03-07T16:39:42.355Z,1.47
2023-03-07T16:42:15.716Z,0.93
2023-03-07T16:44:44.178Z,3.37
2023-03-07T16:47:15.648Z,4.77
2023-03-07T16:49:46.743Z,3.43
2023-03-07T16:52:15.938Z,5.93
2023-03-07T16:54:44.396Z,3.77
2023-03-07T16:57:14.478Z,6.03
2023-03-07T16:59:44.725Z,2.10
2023-03-07T17:02:15.099Z,2.03
2023-03-07T17:04:44.872Z,2.80
2023-03-07T17:07:19.787Z,2.63
2023-03-07T17:09:48.068Z,3.27
2023-03-07T17:12:16.628Z,3.70
2023-03-07T17:14:45.198Z,2.43
2023-03-07T17:17:18.702Z,3.60
2023-03-07T17:19:48.333Z,4.17
2023-03-07T17:22:18.256Z,1.70
2023-03-07T17:24:47.529Z,3.70
2023-03-07T17:27:15.763Z,1.97
2023-03-07T17:29:45.411Z,1.40
2023-03-07T17:32:13.583Z,4.43
2023-03-07T17:34:41.814Z,4.10
2023-03-07T17:37:12.318Z,1.63
2023-03-07T17:39:40.898Z,2.33
2023-03-07T17:42:09.140Z,3.27
2023-03-07T17:44:37.720Z,2.83
2023-03-07T17:47:05.993Z,3.00
2023-03-07T17:49:35.118Z,1.20
2023-03-07T17:52:03.414Z,7.00
2023-03-07T17:54:33.459Z,3.23
2023-03-07T17:57:01.796Z,0.70
2023-03-07T17:59:31.637Z,1.77
2023-03-07T18:01:59.968Z,4.37
2023-03-07T18:04:30.874Z,4.60
2023-03-07T18:06:59.200Z,2.53
2023-03-07T18:09:27.545Z,2.07
2023-03-07T18:11:57.122Z,5.90
2023-03-07T18:14:25.491Z,2.30
2023-03-07T18:16:53.772Z,3.67
2023-03-07T18:19:26.652Z,3.23
2023-03-07T18:21:55.355Z,1.87
2023-03-07T18:24:26.109Z,4.40
2023-03-07T18:26:54.372Z,2.00
2023-03-07T18:29:24.603Z,4.83
2023-03-07T18:31:53.017Z,1.57
2023-03-07T18:34:21.317Z,4.33
2023-03-07T18:36:51.678Z,4.40
2023-03-07T18:39:20.138Z,3.63
2023-03-07T18:41:49.601Z,1.60
2023-03-07T18:44:19.664Z,4.10
2023-03-07T18:46:49.425Z,3.03
2023-03-07T18:49:17.802Z,2.70
2023-03-07T18:51:48.380Z,4.83
2023-03-07T18:54:17.195Z,2.33
2023-03-07T18:56:46.804Z,5.43
2023-03-07T18:59:15.127Z,3.80
2023-03-07T19:01:43.437Z,3.43
2023-03-07T19:04:12.996Z,4.00
2023-03-07T19:06:44.567Z,5.03
2023-03-07T19:09:14.827Z,6.63
2023-03-07T19:11:43.070Z,4.60
2023-03-07T19:14:11.301Z,4.77
2023-03-07T19:16:39.900Z,2.07
2023-03-07T19:19:08.104Z,3.90
2023-03-07T19:21:37.738Z,2.27
2023-03-07T19:24:07.753Z,6.47
2023-03-07T19:26:35.962Z,1.50
2023-03-07T19:29:04.975Z,3.63
2023-03-07T19:31:35.004Z,1.10
2023-03-07T19:34:05.029Z,1.93
2023-03-07T19:36:35.138Z,1.47
2023-03-07T19:39:05.398Z,1.77
2023-03-07T19:41:33.776Z,2.10
2023-03-07T19:44:04.331Z,4.70
2023-03-07T19:46:32.538Z,1.53
2023-03-07T19:49:00.742Z,1.87
2023-03-07T19:51:28.967Z,2.40
2023-03-07T19:53:57.789Z,2.03
2023-03-07T19:56:28.692Z,2.23
2023-03-07T19:58:57.371Z,5.43
2023-03-07T20:01:25.705Z,2.83
2023-03-07T20:03:54.040Z,2.20
2023-03-07T20:06:23.381Z,4.17
2023-03-07T20:08:52.014Z,1.93
2023-03-07T20:11:21.239Z,2.37
2023-03-07T20:13:51.323Z,3.77
2023-03-07T20:16:20.404Z,3.53
2023-03-07T20:18:51.052Z,2.17
2023-03-07T20:21:19.702Z,2.87
2023-03-07T20:23:48.610Z,4.03
2023-03-07T20:26:18.336Z,4.83
2023-03-07T20:28:46.650Z,3.10
2023-03-07T20:31:16.708Z,3.87
2023-03-07T20:33:46.374Z,4.10
2023-03-07T20:36:17.056Z,2.20
2023-03-07T20:38:45.277Z,2.13
2023-03-07T20:41:14.868Z,3.90
2023-03-07T20:43:43.195Z,3.50
2023-03-07T20:46:13.078Z,3.77
2023-03-07T20:48:43.199Z,4.73
2023-03-07T20:51:18.163Z,2.90
2023-03-07T20:53:46.381Z,3.37
2023-03-07T20:56:14.564Z,4.30
2023-03-07T20:58:43.633Z,3.40
2023-03-07T21:01:12.320Z,1.80
2023-03-07T21:03:40.642Z,2.97
2023-03-07T21:06:10.544Z,5.43
2023-03-07T21:08:39.158Z,7.53
2023-03-07T21:11:08.622Z,5.00
2023-03-07T21:13:38.040Z,4.90
2023-03-07T21:16:07.562Z,4.73
2023-03-07T21:18:35.758Z,4.47
2023-03-07T21:21:04.728Z,6.00
2023-03-07T21:23:34.462Z,7.43
2023-03-07T21:26:03.527Z,7.37
2023-03-07T21:28:31.698Z,9.10
2023-03-07T21:31:03.255Z,7.37
2023-03-07T21:33:32.060Z,7.30
2023-03-07T21:36:00.572Z,8.43
2023-03-07T21:38:28.714Z,6.37
2023-03-07T21:40:58.460Z,6.10
2023-03-07T21:43:26.711Z,7.23
2023-03-07T21:45:55.054Z,5.67
2023-03-07T21:48:23.530Z,4.53
2023-03-07T21:50:55.335Z,6.90
2023-03-07T21:53:23.584Z,5.07
2023-03-07T21:55:52.294Z,4.57
2023-03-07T21:58:22.323Z,5.27
2023-03-07T22:00:51.282Z,5.43
2023-03-07T22:03:19.894Z,4.40
2023-03-07T22:05:48.202Z,3.63
2023-03-07T22:08:17.431Z,4.90
2023-03-07T22:10:46.144Z,4.53
2023-03-07T22:13:14.363Z,5.40
2023-03-07T22:15:43.878Z,2.70
2023-03-07T22:18:12.006Z,6.17
2023-03-07T22:20:40.626Z,3.80
2023-03-07T22:23:08.831Z,5.00
2023-03-07T22:25:37.041Z,3.93
2023-03-07T22:28:05.565Z,4.27
2023-03-07T22:30:33.929Z,7.00
2023-03-07T22:33:03.486Z,4.20
2023-03-07T22:35:31.859Z,6.27
2023-03-07T22:38:00.121Z,3.50
2023-03-07T22:40:28.340Z,5.60
2023-03-07T22:42:56.627Z,4.40
2023-03-07T22:45:24.805Z,3.33
2023-03-07T22:47:54.164Z,6.20
2023-03-07T22:50:23.908Z,4.80
2023-03-07T22:52:54.672Z,6.03
2023-03-07T22:55:22.875Z,4.30
2023-03-07T22:57:51.148Z,6.80
2023-03-07T23:00:19.766Z,5.27
2023-03-07T23:02:47.976Z,5.67
2023-03-07T23:05:16.263Z,5.20
2023-03-07T23:07:48.331Z,4.43
2023-03-07T23:10:17.002Z,5.73
2023-03-07T23:12:45.281Z,3.87
2023-03-07T23:15:13.766Z,2.97
2023-03-07T23:17:41.988Z,3.83
2023-03-07T23:20:10.926Z,5.77
2023-03-07T23:22:39.368Z,4.20
2023-03-07T23:25:09.385Z,7.70
2023-03-07T23:27:37.563Z,3.50
2023-03-07T23:30:06.364Z,3.83
2023-03-07T23:32:34.560Z,6.60
2023-03-07T23:35:02.959Z,6.03
2023-03-07T23:37:31.219Z,4.57
2023-03-07T23:40:00.739Z,3.70
2023-03-07T23:42:30.279Z,8.07
2023-03-07T23:44:58.597Z,3.63
2023-03-07T23:47:26.922Z,2.73
2023-03-07T23:49:55.115Z,4.40
2023-03-07T23:52:23.298Z,8.53
2023-03-07T23:54:51.475Z,5.00
2023-03-07T23:57:19.720Z,5.60
2023-03-07T23:59:50.387Z,3.97
